Time;durP1;ratioP1;P1;durP2;ratioP2;P2;SDS_P1;SDS_P2;PMS_P1;PMS_P2;Temp;Humidity;BMP_temperature;BMP_pressure;BME280_temperature;BME280_humidity;BME280_pressure;Samples;Min_cycle;Max_cycle;Signal;HPM_P1;HPM_P2
2021/03/26 00:00:49;;;;;;;51.22;24.08;;;;;;;3.39;84.14;102071.28;5027573;28;20036;-72
2021/03/26 00:03:19;;;;;;;46.85;23.63;;;;;;;3.50;82.18;102089.50;5027086;28;20147;-72
2021/03/26 00:05:48;;;;;;;41.55;20.27;;;;;;;3.48;81.80;102094.16;5025732;28;20063;-72
2021/03/26 00:08:15;;;;;;;41.30;20.27;;;;;;;3.44;81.08;102088.34;5025070;28;20033;-71
2021/03/26 00:10:40;;;;;;;35.83;18.85;;;;;;;3.35;80.60;102089.34;5021940;28;20025;-71
2021/03/26 00:13:07;;;;;;;40.65;19.23;;;;;;;3.27;80.65;102084.91;5026498;28;20476;-72
2021/03/26 00:15:33;;;;;;;48.88;19.95;;;;;;;3.25;80.12;102081.59;5020768;28;20388;-73
2021/03/26 00:17:59;;;;;;;40.35;20.23;;;;;;;3.14;80.86;102079.28;5027433;28;20502;-72
2021/03/26 00:20:24;;;;;;;43.83;22.63;;;;;;;3.03;81.78;102079.59;5024489;28;20041;-72
2021/03/26 00:22:50;;;;;;;44.30;22.88;;;;;;;2.91;83.60;102079.13;5025245;28;20056;-72
2021/03/26 00:25:16;;;;;;;44.00;23.38;;;;;;;2.88;83.57;102078.63;5029671;28;20107;-71
2021/03/26 00:27:42;;;;;;;45.15;20.75;;;;;;;2.83;84.30;102079.09;5026682;28;20061;-71
2021/03/26 00:30:10;;;;;;;36.83;20.23;;;;;;;2.83;83.44;102075.63;5026162;28;20035;-72
2021/03/26 00:32:36;;;;;;;50.67;23.40;;;;;;;2.83;83.11;102080.94;5022195;28;20052;-72
2021/03/26 00:35:03;;;;;;;51.80;24.40;;;;;;;2.76;85.49;102074.66;5025137;28;20029;-72
2021/03/26 00:37:29;;;;;;;54.58;26.60;;;;;;;2.81;84.16;102069.69;5043383;28;20123;-71
2021/03/26 00:39:55;;;;;;;60.20;28.15;;;;;;;2.83;83.63;102070.34;5025055;28;20041;-72
2021/03/26 00:42:20;;;;;;;44.65;22.05;;;;;;;2.83;82.41;102065.03;5026857;28;20032;-72
2021/03/26 00:44:46;;;;;;;47.83;20.77;;;;;;;2.70;83.45;102060.25;5026479;28;20053;-72
2021/03/26 00:47:12;;;;;;;53.65;22.95;;;;;;;2.63;83.62;102068.00;5022125;28;20063;-71
2021/03/26 00:49:38;;;;;;;43.67;20.48;;;;;;;2.62;83.05;102069.00;5022415;28;20059;-72
2021/03/26 00:52:06;;;;;;;42.92;21.15;;;;;;;2.63;82.53;102072.47;5025214;28;20041;-72
2021/03/26 00:54:31;;;;;;;48.22;22.15;;;;;;;2.65;82.12;102062.53;5020875;28;20044;-72
2021/03/26 00:56:57;;;;;;;41.47;20.50;;;;;;;2.64;82.15;102059.06;5027365;28;20168;-73
2021/03/26 00:59:23;;;;;;;44.28;21.65;;;;;;;2.64;82.38;102061.72;5026629;28;20072;-71
2021/03/26 01:01:49;;;;;;;53.58;25.05;;;;;;;2.62;83.21;102061.06;5023972;28;20116;-72
2021/03/26 01:04:15;;;;;;;55.45;26.13;;;;;;;2.66;84.36;102067.66;5024703;28;20041;-71
2021/03/26 01:06:40;;;;;;;52.80;26.17;;;;;;;2.76;84.69;102061.41;5027456;28;20032;-71
2021/03/26 01:09:06;;;;;;;51.72;25.27;;;;;;;2.89;82.95;102067.06;5025759;28;20064;-72
2021/03/26 01:11:34;;;;;;;46.33;23.65;;;;;;;3.01;81.91;102065.72;5024083;28;20033;-72
2021/03/26 01:14:03;;;;;;;49.33;22.38;;;;;;;3.01;81.71;102065.72;5025271;28;20641;-71
2021/03/26 01:16:28;;;;;;;44.35;21.92;;;;;;;3.02;80.88;102062.06;5026546;28;20028;-71
2021/03/26 01:18:55;;;;;;;44.92;21.45;;;;;;;2.98;80.64;102064.22;5024992;28;20156;-71
2021/03/26 01:21:26;;;;;;;47.38;21.15;;;;;;;2.93;80.28;102066.53;5026602;28;20036;-72
2021/03/26 01:23:53;;;;;;;53.65;25.30;;;;;;;2.80;81.17;102052.16;5025733;28;20873;-72
2021/03/26 01:26:18;;;;;;;49.88;23.90;;;;;;;2.66;81.88;102051.78;5023175;28;20033;-72
2021/03/26 01:28:44;;;;;;;52.58;23.50;;;;;;;2.60;80.99;102055.09;5017815;28;20036;-71
2021/03/26 01:31:10;;;;;;;56.55;25.30;;;;;;;2.45;82.26;102056.72;5026593;28;20868;-71
2021/03/26 01:33:36;;;;;;;66.28;27.92;;;;;;;2.33;83.06;102050.09;5021837;28;20552;-71
2021/03/26 01:36:02;;;;;;;53.60;24.42;;;;;;;2.29;82.92;102054.88;5026967;28;20036;-72
2021/03/26 01:38:28;;;;;;;76.82;32.25;;;;;;;2.20;84.98;102049.75;5024302;28;20094;-71
2021/03/26 01:41:01;;;;;;;71.22;29.95;;;;;;;2.22;83.51;102050.41;5025690;28;20029;-72
2021/03/26 01:43:38;;;;;;;70.78;30.83;;;;;;;2.12;85.32;102047.88;5026679;28;20029;-72
2021/03/26 01:46:09;;;;;;;87.32;36.00;;;;;;;2.06;86.74;102041.44;5025565;28;20131;-72
2021/03/26 01:48:48;;;;;;;93.82;38.55;;;;;;;2.06;86.43;102052.00;5024477;28;20036;-72
2021/03/26 01:51:20;;;;;;;120.05;45.13;;;;;;;2.07;88.67;102050.19;5025103;28;20028;-72
2021/03/26 01:53:46;;;;;;;94.55;40.33;;;;;;;2.09;89.10;102056.97;5025610;28;20026;-72
2021/03/26 01:56:12;;;;;;;104.50;42.20;;;;;;;2.02;90.25;102049.84;5025625;28;20032;-73
2021/03/26 01:58:39;;;;;;;101.68;42.65;;;;;;;2.07;90.08;102052.84;5024581;28;20537;-72
2021/03/26 02:01:11;;;;;;;108.22;43.67;;;;;;;2.15;88.42;102058.13;5022667;28;20758;-73
2021/03/26 02:03:43;;;;;;;83.85;37.20;;;;;;;2.11;87.08;102056.81;5022724;28;22015;-72
2021/03/26 02:06:16;;;;;;;73.88;33.58;;;;;;;2.02;86.64;102055.16;5022623;28;20090;-72
2021/03/26 02:08:42;;;;;;;75.20;33.15;;;;;;;1.99;85.58;102058.94;5022670;28;20060;-72
2021/03/26 02:11:29;;;;;;;81.50;34.35;;;;;;;1.85;85.35;102054.25;5017277;28;20116;-72
2021/03/26 02:13:57;;;;;;;80.13;34.78;;;;;;;1.83;85.12;102061.50;5022564;28;20041;-73
2021/03/26 02:16:23;;;;;;;78.75;34.67;;;;;;;1.78;85.28;102059.31;5022793;28;20033;-72
2021/03/26 02:18:49;;;;;;;81.60;35.97;;;;;;;1.77;84.62;102062.13;5023130;28;20033;-72
2021/03/26 02:21:19;;;;;;;81.68;37.65;;;;;;;1.68;85.03;102055.16;5022245;28;20095;-72
2021/03/26 02:23:45;;;;;;;81.47;34.35;;;;;;;1.67;84.82;102056.97;5022201;28;20075;-72
2021/03/26 02:26:20;;;;;;;65.93;31.70;;;;;;;1.58;84.96;102054.44;5022984;28;20095;-72
2021/03/26 02:28:47;;;;;;;69.30;31.30;;;;;;;1.52;84.57;102051.44;5023185;28;20147;-72
2021/03/26 02:31:12;;;;;;;68.68;29.10;;;;;;;1.44;85.06;102045.31;5025177;28;20041;-72
2021/03/26 02:33:38;;;;;;;75.68;30.80;;;;;;;1.37;85.49;102050.34;5023627;28;20506;-71
2021/03/26 02:36:13;;;;;;;62.00;29.20;;;;;;;1.34;85.09;102052.50;5022271;28;20044;-72
2021/03/26 02:38:45;;;;;;;;;;;;;;;1.21;86.01;102048.44;5025853;28;20029;-72
2021/03/26 02:41:25;;;;;;;67.32;28.60;;;;;;;1.20;85.35;102051.22;5025747;28;20023;-72
2021/03/26 02:44:13;;;;;;;73.43;30.90;;;;;;;1.11;87.08;102054.81;5020874;28;20067;-72
2021/03/26 02:46:48;;;;;;;93.25;36.05;;;;;;;1.10;88.38;102061.09;5036178;28;20024;-72
2021/03/26 02:49:25;;;;;;;106.20;39.17;;;;;;;1.06;88.79;102057.06;5016850;28;20129;-72
2021/03/26 02:52:03;;;;;;;114.00;43.05;;;;;;;1.04;89.49;102059.84;5027305;28;20029;-72
2021/03/26 02:54:38;;;;;;;112.63;45.38;;;;;;;1.10;88.93;102061.09;5021249;28;20550;-72
2021/03/26 02:57:41;;;;;;;82.30;35.03;;;;;;;1.18;87.00;102061.13;5023203;28;20041;-72
2021/03/26 03:00:12;;;;;;;73.35;31.17;;;;;;;1.23;85.30;102060.66;5024127;28;20041;-71
2021/03/26 03:02:41;;;;;;;65.00;28.63;;;;;;;1.21;85.15;102063.44;5024187;28;20036;-71
2021/03/26 03:05:10;;;;;;;69.90;31.30;;;;;;;1.16;84.71;102060.44;5034973;28;20037;-72
2021/03/26 03:07:41;;;;;;;89.28;37.13;;;;;;;1.10;86.64;102069.00;5018687;28;20041;-72
2021/03/26 03:10:27;;;;;;;84.60;38.25;;;;;;;1.03;86.08;102067.94;5020276;28;20187;-72
2021/03/26 03:13:00;;;;;;;91.65;36.47;;;;;;;0.98;87.82;102070.22;5019227;28;20110;-71
2021/03/26 03:15:29;;;;;;;94.43;37.55;;;;;;;0.96;88.94;102067.72;5023765;28;20113;-72
2021/03/26 03:18:07;;;;;;;92.00;39.60;;;;;;;1.02;88.77;102066.28;5023016;28;20451;-72
2021/03/26 03:20:54;;;;;;;86.03;37.88;;;;;;;1.09;86.83;102064.69;5023007;28;20624;-72
2021/03/26 03:23:58;;;;;;;90.88;38.25;;;;;;;1.02;88.30;102077.66;5018325;28;20219;-73
2021/03/26 03:26:37;;;;;;;65.53;29.90;;;;;;;1.17;86.75;102076.13;5029600;28;20109;-72
2021/03/26 03:29:11;;;;;;;83.68;33.45;;;;;;;1.25;86.91;102072.72;5027170;28;20052;-71
2021/03/26 03:32:17;;;;;;;82.22;33.97;;;;;;;1.25;86.69;102067.44;5028571;28;20043;-72
2021/03/26 03:34:49;;;;;;;75.18;30.95;;;;;;;1.35;85.39;102070.00;5032470;28;20045;-71
2021/03/26 03:37:28;;;;;;;77.35;32.33;;;;;;;1.34;85.21;102066.53;5028079;28;21235;-72
2021/03/26 03:40:04;;;;;;;69.82;29.67;;;;;;;1.38;84.38;102059.94;5026011;28;20028;-72
2021/03/26 03:42:38;;;;;;;71.07;30.77;;;;;;;1.40;83.55;102060.59;5026569;28;20024;-72
2021/03/26 03:45:16;;;;;;;67.25;30.13;;;;;;;1.39;83.61;102063.41;5024744;28;20638;-72
2021/03/26 03:47:54;;;;;;;61.22;27.52;;;;;;;1.40;82.97;102063.25;5026296;28;20218;-72
2021/03/26 03:50:20;;;;;;;55.58;23.60;;;;;;;1.31;83.62;102066.00;5026501;28;20032;-72
2021/03/26 03:53:18;;;;;;;59.67;26.42;;;;;;;1.12;85.50;102057.31;5026608;28;20498;-72
2021/03/26 03:55:53;;;;;;;58.80;27.67;;;;;;;1.22;84.56;102062.47;5025245;28;20090;-72
2021/03/26 03:58:24;;;;;;;48.40;24.73;;;;;;;1.28;83.85;102061.88;5027644;28;20048;-71
2021/03/26 04:01:01;;;;;;;52.15;24.15;;;;;;;1.30;83.38;102059.06;5023867;28;20025;-72
2021/03/26 04:03:32;;;;;;;49.00;22.77;;;;;;;1.38;82.72;102054.66;5026144;28;20032;-72
2021/03/26 04:06:14;;;;;;;54.03;24.83;;;;;;;1.31;82.82;102061.56;5025130;28;20944;-72
2021/03/26 04:08:46;;;;;;;62.63;27.15;;;;;;;1.32;82.88;102057.94;5041098;28;20132;-72
2021/03/26 04:11:36;;;;;;;62.78;28.63;;;;;;;1.37;82.78;102062.72;5025091;28;20036;-72
2021/03/26 04:14:11;;;;;;;62.60;28.23;;;;;;;1.41;82.51;102056.16;5023230;28;20491;-72
2021/03/26 04:16:41;;;;;;;70.43;32.00;;;;;;;1.40;84.10;102062.41;5024400;28;20033;-72
2021/03/26 04:19:22;;;;;;;80.47;33.33;;;;;;;1.43;85.38;102062.94;5024481;28;20029;-72
2021/03/26 04:21:51;;;;;;;76.15;34.28;;;;;;;1.62;83.54;102069.00;5026443;28;20029;-72
2021/03/26 04:24:39;;;;;;;63.22;29.88;;;;;;;1.72;82.85;102059.13;5025250;28;20024;-72
2021/03/26 04:27:20;;;;;;;64.55;29.35;;;;;;;1.67;83.88;102066.72;5024609;28;20033;-72
2021/03/26 04:29:54;;;;;;;64.28;28.75;;;;;;;1.75;83.31;102064.09;5025064;28;20040;-72
2021/03/26 04:32:22;;;;;;;64.78;29.50;;;;;;;1.81;82.40;102064.31;5025014;28;20116;-72
2021/03/26 04:34:50;;;;;;;61.50;29.40;;;;;;;1.80;82.59;102051.25;5025456;28;20054;-72
2021/03/26 04:37:22;;;;;;;67.00;30.63;;;;;;;1.66;83.92;102065.88;5024933;28;20035;-72
2021/03/26 04:39:54;;;;;;;76.78;32.83;;;;;;;1.48;86.07;102065.94;5023465;28;20090;-72
2021/03/26 04:42:30;;;;;;;89.93;35.53;;;;;;;1.33;87.76;102064.88;5027175;28;20470;-72
2021/03/26 04:45:15;;;;;;;66.85;29.08;;;;;;;1.41;85.61;102067.53;5025969;28;20620;-71
2021/03/26 04:47:58;;;;;;;69.57;29.88;;;;;;;1.36;84.59;102064.56;5024491;28;20040;-72
2021/03/26 04:50:30;;;;;;;67.20;29.65;;;;;;;1.41;83.78;102066.72;5037030;28;20721;-72
2021/03/26 04:53:08;;;;;;;84.72;33.70;;;;;;;1.23;85.22;102064.13;5026574;28;20065;-71
2021/03/26 04:55:37;;;;;;;103.97;37.85;;;;;;;1.27;83.74;102065.50;5041302;28;20517;-71
2021/03/26 04:58:28;;;;;;;112.35;43.92;;;;;;;1.19;86.71;102062.78;5019972;28;20451;-72
2021/03/26 05:00:59;;;;;;;85.43;37.53;;;;;;;1.28;85.99;102063.69;5019354;28;20039;-72
2021/03/26 05:03:53;;;;;;;95.40;40.65;;;;;;;1.34;85.62;102058.59;5022235;28;20036;-73
2021/03/26 05:06:23;;;;;;;93.10;38.58;;;;;;;1.49;84.66;102057.03;5021108;28;20025;-72
2021/03/26 05:08:56;;;;;;;106.50;43.10;;;;;;;1.53;85.18;102065.47;5025618;28;20631;-72
2021/03/26 05:11:25;;;;;;;120.47;48.50;;;;;;;1.62;86.09;102076.94;5024718;28;20025;-72
2021/03/26 05:13:56;;;;;;;107.80;44.97;;;;;;;1.63;88.72;102081.22;5023505;28;20191;-72
2021/03/26 05:16:29;;;;;;;93.18;40.90;;;;;;;1.84;85.08;102062.34;5024063;28;20068;-72
2021/03/26 05:19:14;;;;;;;85.15;37.53;;;;;;;2.00;84.28;102067.69;5022473;28;20087;-72
2021/03/26 05:21:53;;;;;;;94.95;39.55;;;;;;;2.11;83.12;102070.03;5023587;28;20078;-73
2021/03/26 05:24:33;;;;;;;102.93;41.22;;;;;;;2.10;84.62;102069.19;5023704;28;20068;-72
2021/03/26 05:26:59;;;;;;;86.57;38.22;;;;;;;2.22;83.17;102067.09;5023009;28;20067;-72
2021/03/26 05:29:25;;;;;;;82.15;37.53;;;;;;;2.33;82.27;102063.31;5022824;28;20121;-72
2021/03/26 05:32:03;;;;;;;86.68;36.50;;;;;;;2.38;82.46;102058.38;5023095;28;20663;-72
2021/03/26 05:34:36;;;;;;;82.90;35.85;;;;;;;2.56;81.42;102060.91;5040333;28;20033;-72
2021/03/26 05:37:12;;;;;;;83.47;36.05;;;;;;;2.61;81.18;102055.94;5025799;28;20029;-72
2021/03/26 05:39:38;;;;;;;93.25;40.42;;;;;;;2.43;84.90;102075.41;5024301;28;20842;-71
2021/03/26 05:42:41;;;;;;;94.88;39.72;;;;;;;2.11;87.08;102077.97;5030505;28;20087;-74
2021/03/26 05:45:16;;;;;;;100.00;42.42;;;;;;;2.19;87.45;102087.75;5022353;28;20150;-71
2021/03/26 05:48:08;;;;;;;106.15;45.85;;;;;;;2.24;87.39;102082.81;5022155;28;20035;-71
2021/03/26 05:50:56;;;;;;;88.22;40.55;;;;;;;2.50;84.74;102080.88;5025819;28;20037;-73
2021/03/26 05:54:08;;;;;;;94.82;39.58;;;;;;;2.77;85.23;102073.66;5025941;28;20372;-71
2021/03/26 05:57:00;;;;;;;98.80;41.78;;;;;;;2.94;84.38;102072.66;5028360;28;20156;-71
2021/03/26 05:59:44;;;;;;;83.38;37.55;;;;;;;3.10;81.95;102072.66;5021941;28;20036;-71
2021/03/26 06:02:43;;;;;;;94.47;42.00;;;;;;;3.23;81.98;102072.13;5024509;28;20047;-73
2021/03/26 06:05:18;;;;;;;83.40;40.17;;;;;;;3.39;80.94;102072.13;5024744;28;20025;-73
2021/03/26 06:07:44;;;;;;;;;;;;;;;3.33;83.69;102073.63;5034989;28;20150;-72
2021/03/26 06:10:28;;;;;;;86.55;38.75;;;;;;;3.25;85.11;102081.59;5023624;28;21247;-73
2021/03/26 06:13:09;;;;;;;76.22;35.53;;;;;;;3.43;82.66;102085.88;5020766;28;20029;-73
2021/03/26 06:15:53;;;;;;;91.22;39.90;;;;;;;3.46;83.34;102082.88;5019145;28;20032;-72
2021/03/26 06:18:38;;;;;;;92.72;41.22;;;;;;;3.61;82.57;102083.84;5026089;28;20112;-71
2021/03/26 06:21:15;;;;;;;;;;;;;;;3.71;83.19;102087.13;5027978;28;20140;-73
2021/03/26 06:23:56;;;;;;;94.85;40.95;;;;;;;3.86;82.20;102080.13;5018931;28;19950;-71
2021/03/26 06:26:50;;;;;;;93.65;42.65;;;;;;;4.02;81.49;102089.84;5023555;28;20160;-71
2021/03/26 06:29:38;;;;;;;90.18;41.15;;;;;;;4.09;81.64;102088.13;5021453;28;20033;-73
2021/03/26 08:49:46;;;;;;;80.83;37.00;;;;;;;6.56;83.65;102138.78;5096728;28;20697;-72
2021/03/26 08:52:17;;;;;;;74.80;36.08;;;;;;;6.81;81.47;102133.91;5031818;28;20074;-72
2021/03/26 08:55:01;;;;;;;72.22;35.60;;;;;;;7.08;79.81;102128.84;5054747;28;20032;-73
2021/03/26 08:57:45;;;;;;;72.45;33.78;;;;;;;7.25;78.86;102127.56;5042060;28;20032;-72
2021/03/26 09:00:35;;;;;;;85.28;38.78;;;;;;;7.45;78.37;102130.41;5063506;28;20172;-73
2021/03/26 09:03:38;;;;;;;82.07;40.72;;;;;;;7.64;78.92;102124.38;5063012;28;20036;-72
2021/03/26 09:06:12;;;;;;;72.68;36.10;;;;;;;7.89;77.30;102116.72;5061543;28;20202;-74
2021/03/26 09:08:43;;;;;;;80.75;40.58;;;;;;;8.02;77.67;102119.47;5064947;28;20157;-73
2021/03/26 09:11:43;;;;;;;79.45;40.03;;;;;;;8.23;77.62;102128.41;5060973;28;20579;-74
2021/03/26 09:14:26;;;;;;;72.57;36.88;;;;;;;8.54;76.51;102128.75;5066985;28;20503;-73
2021/03/26 12:22:48;;;;;;;58.25;34.25;;;;;;;24.24;33.32;101969.59;5097564;28;20042;-72
2021/03/26 12:25:53;;;;;;;59.63;35.63;;;;;;;25.76;31.29;101960.00;5059813;28;21059;-74
2021/03/26 12:28:30;;;;;;;55.47;34.00;;;;;;;26.96;28.90;101951.91;5034501;28;20067;-77
2021/03/26 12:31:18;;;;;;;52.85;32.25;;;;;;;27.51;28.83;101945.50;5069443;28;20077;-75
2021/03/26 12:34:06;;;;;;;51.90;33.13;;;;;;;27.73;27.53;101942.44;5090065;28;21053;-78
2021/03/26 12:36:42;;;;;;;59.03;35.20;;;;;;;26.76;25.17;101943.25;5092528;28;20027;-75
2021/03/26 12:39:21;;;;;;;57.97;35.30;;;;;;;26.06;28.60;101939.00;5062045;28;20032;-74
2021/03/26 12:42:15;;;;;;;57.67;36.10;;;;;;;26.04;29.74;101937.72;5087037;28;20413;-77
2021/03/26 12:44:52;;;;;;;55.33;34.13;;;;;;;26.06;27.78;101928.03;5089432;28;20082;-77
2021/03/26 12:47:48;;;;;;;57.33;32.45;;;;;;;26.17;28.27;101931.22;5076069;28;20028;-79
2021/03/26 12:50:22;;;;;;;61.97;33.78;;;;;;;25.83;26.63;101924.63;5090740;28;20024;-79
2021/03/26 12:53:14;;;;;;;55.08;34.20;;;;;;;23.34;30.26;101922.03;5090903;28;20046;-76
2021/03/26 12:56:18;;;;;;;57.08;35.03;;;;;;;22.84;33.48;101920.03;5092329;28;20035;-77
2021/03/26 12:59:24;;;;;;;57.30;35.10;;;;;;;21.51;36.08;101919.66;5088197;28;20023;-80
2021/03/26 13:01:54;;;;;;;54.65;34.22;;;;;;;21.17;37.36;101917.88;5088120;28;20524;-74
2021/03/26 13:04:26;;;;;;;57.65;34.58;;;;;;;20.79;37.75;101923.19;5087445;28;20035;-76
2021/03/26 13:06:56;;;;;;;61.28;35.17;;;;;;;20.44;38.28;101918.91;5084857;28;20493;-77
2021/03/26 13:09:28;;;;;;;57.22;34.72;;;;;;;20.15;39.19;101918.84;5082822;28;20952;-73
2021/03/26 13:12:13;;;;;;;57.97;35.70;;;;;;;20.03;39.02;101910.22;5072869;28;20027;-74
2021/03/26 13:14:50;;;;;;;58.40;33.97;;;;;;;19.86;39.66;101909.81;5088270;28;20143;-78
2021/03/26 13:17:28;;;;;;;60.22;35.28;;;;;;;19.73;40.44;101915.84;5086037;28;20810;-77
2021/03/26 13:20:17;;;;;;;62.08;35.83;;;;;;;19.39;40.89;101905.69;5089666;28;20020;-74
2021/03/26 13:22:55;;;;;;;57.50;32.67;;;;;;;19.38;40.88;101901.31;5068667;28;20047;-75
2021/03/26 13:25:31;;;;;;;56.47;34.72;;;;;;;18.79;40.76;101902.09;5067094;28;20591;-75
2021/03/26 13:27:57;;;;;;;56.03;33.30;;;;;;;18.98;41.57;101905.84;5088876;28;20055;-76
2021/03/26 13:30:30;;;;;;;60.65;32.35;;;;;;;18.95;40.98;101900.16;5089367;28;20102;-72
2021/03/26 13:32:56;;;;;;;55.20;32.85;;;;;;;18.38;41.32;101896.69;5084422;28;20028;-77
2021/03/26 13:35:44;;;;;;;55.20;32.47;;;;;;;18.34;41.69;101898.31;5086638;28;20030;-76
2021/03/26 13:38:31;;;;;;;57.75;32.65;;;;;;;18.32;41.51;101896.97;5040555;28;20062;-76
2021/03/26 13:40:58;;;;;;;61.28;33.20;;;;;;;18.19;41.75;101892.91;5087190;28;20066;-76
2021/03/26 13:43:27;;;;;;;52.83;31.95;;;;;;;18.18;41.56;101885.84;5087765;28;20092;-74
2021/03/26 13:45:58;;;;;;;52.63;31.25;;;;;;;18.34;41.59;101892.09;5086492;28;20511;-75
2021/03/26 13:48:29;;;;;;;52.55;31.10;;;;;;;18.44;40.98;101878.50;5088420;28;20127;-77
2021/03/26 13:50:58;;;;;;;52.13;30.40;;;;;;;18.53;40.93;101878.78;5086660;28;20020;-75
2021/03/26 13:53:41;;;;;;;52.08;29.98;;;;;;;17.64;40.57;101880.06;5088510;28;20031;-74
2021/03/26 13:56:10;;;;;;;49.05;30.30;;;;;;;17.84;41.74;101877.41;5067906;28;20027;-77
2021/03/26 13:58:38;;;;;;;50.85;30.08;;;;;;;17.67;41.57;101869.50;5079609;28;20037;-76
2021/03/26 14:01:20;;;;;;;53.60;28.98;;;;;;;17.67;41.28;101869.50;5079711;28;20031;-76
2021/03/26 14:03:48;;;;;;;51.80;29.50;;;;;;;17.95;41.29;101859.25;5082468;28;20370;-73
2021/03/26 14:06:27;;;;;;;47.22;28.98;;;;;;;17.87;41.69;101862.50;5089938;28;20046;-75
2021/03/26 14:08:52;;;;;;;54.60;31.83;;;;;;;17.65;41.70;101862.72;5088437;28;20117;-73
2021/03/26 14:11:18;;;;;;;57.17;30.20;;;;;;;17.53;41.69;101857.53;5087098;28;20122;-75
2021/03/26 14:13:57;;;;;;;50.80;28.67;;;;;;;15.88;44.16;101863.31;5089430;28;20122;-76
2021/03/26 14:16:29;;;;;;;54.08;30.25;;;;;;;16.17;44.50;101861.94;5088784;28;22028;-79
2021/03/26 14:19:12;;;;;;;50.53;29.90;;;;;;;16.41;43.24;101858.88;5089875;28;20038;-77
2021/03/26 14:21:44;;;;;;;53.10;30.67;;;;;;;15.96;44.76;101858.22;5087834;27;20049;-75
2021/03/26 14:24:19;;;;;;;54.70;31.50;;;;;;;16.49;43.94;101847.56;5065553;28;20039;-76
2021/03/26 14:27:34;;;;;;;55.53;31.00;;;;;;;16.65;44.23;101845.75;5087209;28;20031;-76
2021/03/26 14:30:15;;;;;;;49.88;28.58;;;;;;;15.93;44.66;101850.66;5071620;28;20040;-75
2021/03/26 14:33:06;;;;;;;54.47;29.08;;;;;;;15.77;44.55;101840.75;5086659;28;20039;-74
2021/03/26 14:35:47;;;;;;;54.50;29.75;;;;;;;16.46;43.91;101832.66;5066922;28;20039;-75
2021/03/26 14:38:39;;;;;;;50.28;29.00;;;;;;;17.44;41.29;101832.06;5067106;28;20172;-74
2021/03/26 14:41:22;;;;;;;54.42;29.08;;;;;;;18.41;40.20;101836.44;5091161;28;20031;-73
2021/03/26 14:44:04;;;;;;;52.70;29.58;;;;;;;18.18;39.59;101837.03;5085657;28;20060;-73
2021/03/26 14:46:39;;;;;;;54.55;28.25;;;;;;;17.10;42.05;101826.25;5088071;28;20032;-76
2021/03/26 14:49:13;;;;;;;53.58;30.20;;;;;;;16.53;42.08;101829.75;5092021;28;20055;-76
2021/03/26 14:51:47;;;;;;;50.97;29.53;;;;;;;16.36;43.17;101824.50;5091551;28;20864;-75
2021/03/26 14:54:34;;;;;;;66.00;35.50;;;;;;;16.33;43.54;101822.28;5091281;28;21226;-78
2021/03/26 14:57:36;;;;;;;71.18;36.75;;;;;;;16.22;44.07;101824.13;5089923;28;20277;-75
2021/03/26 15:00:07;;;;;;;106.65;51.47;;;;;;;16.34;43.46;101818.53;5064850;28;20949;-74
2021/03/26 15:03:01;;;;;;;107.45;53.15;;;;;;;16.44;43.89;101812.38;5068479;28;20039;-74
2021/03/26 15:06:02;;;;;;;61.65;34.30;;;;;;;16.31;43.83;101816.34;5090274;28;20030;-77
2021/03/26 15:08:56;;;;;;;62.40;32.72;;;;;;;16.45;43.88;101809.41;5089883;28;20103;-77
2021/03/26 15:11:30;;;;;;;50.47;29.23;;;;;;;16.41;43.86;101811.00;5090452;28;20036;-75
2021/03/26 15:14:06;;;;;;;48.55;28.95;;;;;;;16.10;44.56;101806.44;5071295;28;20078;-73
2021/03/26 15:16:46;;;;;;;53.55;31.02;;;;;;;16.10;44.98;101801.03;5091808;28;20028;-74
2021/03/26 15:19:21;;;;;;;54.92;30.20;;;;;;;16.09;45.54;101796.72;5093373;27;20035;-74
2021/03/26 15:22:27;;;;;;;56.58;29.85;;;;;;;16.20;46.09;101796.53;5095443;28;20038;-76
2021/03/26 15:24:59;;;;;;;53.03;29.92;;;;;;;16.23;47.01;101795.19;5077412;28;20495;-73
2021/03/26 15:27:53;;;;;;;49.58;29.48;;;;;;;15.94;48.95;101784.69;5093744;28;20035;-76
2021/03/26 15:30:32;;;;;;;53.05;30.30;;;;;;;15.83;49.20;101782.19;5075569;28;20034;-77
2021/03/26 15:33:10;;;;;;;55.55;29.58;;;;;;;15.87;48.60;101781.41;5093103;28;20204;-77
2021/03/26 15:35:41;;;;;;;50.97;30.02;;;;;;;16.00;48.17;101774.75;5093891;28;20042;-76
2021/03/26 15:38:15;;;;;;;51.15;29.27;;;;;;;15.89;48.13;101773.88;5091468;28;20642;-74
2021/03/26 15:40:47;;;;;;;53.58;29.98;;;;;;;15.83;47.24;101771.38;5094254;28;20107;-73
2021/03/26 15:43:21;;;;;;;62.15;31.83;;;;;;;15.86;47.73;101773.56;5076267;28;20027;-76
2021/03/26 15:45:56;;;;;;;54.42;29.33;;;;;;;15.83;46.61;101765.97;5096791;28;20043;-75
2021/03/26 15:48:45;;;;;;;54.63;29.33;;;;;;;15.86;47.13;101762.75;5096423;28;20028;-76
2021/03/26 15:51:30;;;;;;;60.83;31.02;;;;;;;15.87;46.97;101764.38;5092171;28;20741;-76
2021/03/26 15:54:33;;;;;;;51.40;27.95;;;;;;;15.80;47.07;101758.38;5094876;28;20035;-75
2021/03/26 15:57:14;;;;;;;52.20;28.65;;;;;;;15.70;48.35;101762.63;5095733;27;20019;-74
2021/03/26 15:59:57;;;;;;;48.08;28.10;;;;;;;15.65;48.43;101761.78;5094613;28;20693;-79
2021/03/26 16:02:43;;;;;;;47.58;28.25;;;;;;;15.48;48.30;101761.06;5091386;28;20233;-76
2021/03/26 16:05:33;;;;;;;49.25;28.50;;;;;;;15.41;48.79;101767.47;5089515;28;20024;-76
2021/03/26 16:08:52;;;;;;;49.28;28.08;;;;;;;15.15;48.86;101760.19;5094638;28;20481;-75
2021/03/26 16:11:41;;;;;;;59.35;29.58;;;;;;;15.05;49.40;101757.38;5038728;28;20676;-75
2021/03/26 16:14:22;;;;;;;53.25;27.63;;;;;;;14.80;51.12;101756.00;5096279;28;20078;-73
2021/03/26 16:17:15;;;;;;;51.33;27.98;;;;;;;14.81;50.69;101751.44;5094349;28;20032;-72
2021/03/26 16:20:04;;;;;;;48.50;27.42;;;;;;;14.94;50.61;101751.06;5050950;28;20070;-74
2021/03/26 16:22:54;;;;;;;56.40;30.95;;;;;;;14.85;50.36;101747.16;5096501;28;20026;-77
2021/03/26 16:25:34;;;;;;;60.30;33.28;;;;;;;14.70;51.06;101747.78;5093349;28;20127;-72
2021/03/26 16:28:29;;;;;;;75.32;42.63;;;;;;;14.63;51.23;101744.47;5094406;28;20393;-77
2021/03/26 16:31:29;;;;;;;65.10;35.58;;;;;;;14.52;52.00;101738.13;5092073;28;20385;-77
2021/03/26 16:34:19;;;;;;;54.75;32.53;;;;;;;14.37;51.95;101739.78;5087852;28;20067;-74
2021/03/26 16:36:49;;;;;;;58.22;31.45;;;;;;;14.34;52.05;101734.88;5091859;28;20107;-73
2021/03/26 16:39:41;;;;;;;60.88;31.30;;;;;;;14.23;52.64;101738.50;5095182;28;20596;-72
2021/03/26 16:42:37;;;;;;;59.42;32.15;;;;;;;14.12;52.61;101729.44;5070902;28;20059;-75
2021/03/26 16:45:20;;;;;;;57.22;30.92;;;;;;;14.15;52.52;101727.06;5087426;28;20016;-76
2021/03/26 16:47:49;;;;;;;57.75;30.75;;;;;;;14.03;52.97;101728.25;5074028;28;20028;-76
2021/03/26 16:50:42;;;;;;;56.45;31.27;;;;;;;13.88;53.64;101737.72;5090670;28;20016;-75
2021/03/26 16:53:38;;;;;;;58.20;31.17;;;;;;;13.91;53.33;101734.53;5079810;28;20493;-73
2021/03/26 16:56:28;;;;;;;54.63;30.25;;;;;;;13.74;54.34;101727.53;5095677;28;20032;-77
2021/03/26 16:59:11;;;;;;;63.33;37.38;;;;;;;13.66;54.83;101733.34;5075661;28;20045;-73
2021/03/26 17:01:43;;;;;;;66.63;37.00;;;;;;;13.71;54.69;101736.09;5079263;28;20067;-72
2021/03/26 17:04:33;;;;;;;70.15;36.78;;;;;;;13.61;55.42;101731.34;5094832;28;20031;-76
2021/03/26 17:07:20;;;;;;;61.75;36.22;;;;;;;13.58;55.13;101727.28;5093846;28;20034;-75
2021/03/26 17:10:27;;;;;;;64.38;36.03;;;;;;;13.34;57.55;101723.09;5095410;27;20134;-74
2021/03/26 17:13:31;;;;;;;67.22;34.17;;;;;;;13.06;59.05;101723.88;5090010;28;20937;-75
2021/03/26 17:16:35;;;;;;;59.90;34.13;;;;;;;12.82;59.70;101715.09;5061322;28;20043;-75
2021/03/26 17:19:06;;;;;;;58.63;33.55;;;;;;;12.70;60.52;101725.06;5067348;28;20032;-72
2021/03/26 17:21:41;;;;;;;66.32;34.95;;;;;;;12.57;60.86;101717.28;5077164;28;20031;-72
2021/03/26 17:24:38;;;;;;;63.80;34.45;;;;;;;12.21;63.21;101721.91;5071125;28;20027;-77
2021/03/26 17:27:41;;;;;;;69.20;36.58;;;;;;;12.23;61.40;101727.88;5092905;28;20019;-77